createdAt,value
2023-01-05T00:00:14.412Z,0
2023-01-05T00:01:17.931Z,0
2023-01-05T00:02:26.916Z,0
2023-01-05T00:03:30.231Z,0
2023-01-05T00:04:33.616Z,0
2023-01-05T00:06:39.938Z,0
2023-01-05T00:07:43.509Z,0
2023-01-05T00:09:49.959Z,0
2023-01-05T00:11:55.504Z,0
2023-01-05T00:14:01.499Z,0
2023-01-05T00:15:05.417Z,0
2023-01-05T00:17:12.817Z,0
2023-01-05T00:19:20.444Z,0
2023-01-05T00:21:26.549Z,0
2023-01-05T00:22:29.613Z,0
2023-01-05T00:24:35.469Z,0
2023-01-05T00:26:41.665Z,0
2023-01-05T00:27:44.779Z,0
2023-01-05T00:29:50.373Z,0
2023-01-05T00:31:57.432Z,0
2023-01-05T00:33:00.887Z,0
2023-01-05T00:34:04.366Z,0
2023-01-05T00:35:08.093Z,0
2023-01-05T00:37:14.768Z,0
2023-01-05T00:39:20.587Z,0
2023-01-05T00:40:24.350Z,0
2023-01-05T00:42:30.955Z,0
2023-01-05T00:44:37.276Z,0
2023-01-05T00:46:43.196Z,0
2023-01-05T00:47:46.915Z,0
2023-01-05T00:49:53.834Z,0
2023-01-05T00:52:00.023Z,0
2023-01-05T00:54:06.844Z,0
2023-01-05T00:55:09.854Z,0
2023-01-05T00:57:16.037Z,0
2023-01-05T00:59:22.202Z,0
2023-01-05T01:01:29.568Z,0
2023-01-05T01:02:33.161Z,0
2023-01-05T01:04:40.740Z,0
2023-01-05T01:06:47.022Z,0
2023-01-05T01:08:52.880Z,0
2023-01-05T01:09:55.980Z,0
2023-01-05T01:12:01.616Z,0
2023-01-05T01:13:04.699Z,0
2023-01-05T01:14:06.847Z,0
2023-01-05T01:16:13.283Z,0
2023-01-05T01:17:17.026Z,0
2023-01-05T01:19:22.477Z,0
2023-01-05T01:21:29.823Z,0
2023-01-05T01:23:36.520Z,0
2023-01-05T01:24:39.047Z,0
2023-01-05T01:26:45.257Z,0
2023-01-05T01:28:51.627Z,0
2023-01-05T01:30:58.262Z,0
2023-01-05T01:32:01.831Z,0
2023-01-05T01:34:08.093Z,0
2023-01-05T01:35:11.186Z,0
2023-01-05T01:36:15.061Z,0
2023-01-05T01:37:18.556Z,0
2023-01-05T01:38:21.009Z,0
2023-01-05T01:39:24.002Z,0
2023-01-05T01:41:29.611Z,0
2023-01-05T01:43:36.147Z,0
2023-01-05T01:44:39.485Z,0
2023-01-05T01:45:42.507Z,0
2023-01-05T01:46:45.587Z,0
2023-01-05T01:48:50.463Z,0
2023-01-05T01:49:53.820Z,0
2023-01-05T01:51:59.459Z,0
2023-01-05T01:54:06.128Z,0
2023-01-05T01:55:09.160Z,0
2023-01-05T01:57:15.627Z,0
2023-01-05T01:59:22.130Z,0
2023-01-05T02:01:28.284Z,0
2023-01-05T02:02:32.315Z,0
2023-01-05T02:04:39.520Z,0
2023-01-05T02:06:44.540Z,0
2023-01-05T02:08:52.911Z,0
2023-01-05T02:09:56.277Z,0
2023-01-05T02:12:02.280Z,0
2023-01-05T02:14:08.628Z,0
2023-01-05T02:15:11.634Z,0
2023-01-05T02:17:17.291Z,0
2023-01-05T02:19:23.502Z,0
2023-01-05T02:20:26.705Z,0
2023-01-05T02:22:32.356Z,0
2023-01-05T02:23:35.316Z,0
2023-01-05T02:25:41.610Z,0
2023-01-05T02:27:47.794Z,0
2023-01-05T02:28:49.969Z,0
2023-01-05T02:30:55.957Z,0
2023-01-05T02:31:59.371Z,0
2023-01-05T02:34:05.467Z,0
2023-01-05T02:35:08.610Z,0
2023-01-05T02:37:15.095Z,0
2023-01-05T02:39:21.307Z,0
2023-01-05T02:40:24.787Z,0
2023-01-05T02:42:31.897Z,0
2023-01-05T02:44:37.087Z,0
2023-01-05T02:45:40.760Z,0
2023-01-05T02:46:43.588Z,0
2023-01-05T02:47:46.429Z,0
2023-01-05T02:49:51.303Z,0
2023-01-05T02:50:54.370Z,0
2023-01-05T02:53:00.526Z,0
2023-01-05T02:55:07.715Z,0
2023-01-05T02:57:14.603Z,0
2023-01-05T02:58:17.605Z,0
2023-01-05T03:00:23.810Z,0
2023-01-05T03:01:27.504Z,0
2023-01-05T03:02:32.448Z,0
2023-01-05T03:03:36.522Z,0
2023-01-05T03:05:41.995Z,0
2023-01-05T03:06:45.124Z,0
2023-01-05T03:08:51.837Z,0
2023-01-05T03:10:57.651Z,0
2023-01-05T03:12:01.706Z,0
2023-01-05T03:14:07.670Z,0
2023-01-05T03:15:11.294Z,0
2023-01-05T03:17:17.053Z,0
2023-01-05T03:19:23.305Z,0
2023-01-05T03:21:29.555Z,0
2023-01-05T03:22:33.197Z,0
2023-01-05T03:24:39.297Z,0
2023-01-05T03:26:45.208Z,0
2023-01-05T03:27:49.276Z,0
2023-01-05T03:28:52.325Z,0
2023-01-05T03:29:55.054Z,0
2023-01-05T03:30:58.266Z,0
2023-01-05T03:32:01.146Z,0
2023-01-05T03:33:03.585Z,0
2023-01-05T03:35:10.119Z,0
2023-01-05T03:36:13.240Z,0
2023-01-05T03:38:21.007Z,0
2023-01-05T03:40:26.803Z,0
2023-01-05T03:42:33.110Z,0
2023-01-05T03:43:37.179Z,0
2023-01-05T03:45:42.715Z,0
2023-01-05T03:47:49.814Z,0
2023-01-05T03:49:56.341Z,0
2023-01-05T03:50:59.343Z,0
2023-01-05T03:53:06.125Z,0
2023-01-05T03:55:12.008Z,0
2023-01-05T03:57:18.326Z,0
2023-01-05T03:58:21.776Z,0
2023-01-05T04:00:28.023Z,0
2023-01-05T04:02:37.151Z,0
2023-01-05T04:04:43.003Z,0
2023-01-05T04:05:47.002Z,0
2023-01-05T04:07:52.990Z,0
2023-01-05T04:09:59.219Z,0
2023-01-05T04:12:04.401Z,0
2023-01-05T04:13:07.743Z,0
2023-01-05T04:15:14.713Z,0
2023-01-05T04:17:20.657Z,0
2023-01-05T04:19:26.494Z,0
2023-01-05T04:20:29.896Z,0
2023-01-05T04:22:35.380Z,0
2023-01-05T04:24:41.869Z,0
2023-01-05T04:26:47.186Z,0
2023-01-05T04:27:50.574Z,0
2023-01-05T04:29:56.789Z,0
2023-01-05T04:32:04.787Z,0
2023-01-05T04:34:11.918Z,0
2023-01-05T04:35:14.414Z,0
2023-01-05T04:37:20.317Z,0
2023-01-05T04:39:27.005Z,0
2023-01-05T04:41:32.654Z,0
2023-01-05T04:42:35.766Z,0
2023-01-05T04:43:39.151Z,0
2023-01-05T04:44:42.217Z,0
2023-01-05T04:46:50.006Z,0
2023-01-05T04:47:52.744Z,0
2023-01-05T04:48:56.480Z,0
2023-01-05T04:49:59.551Z,0
2023-01-05T04:52:05.944Z,0
2023-01-05T04:53:09.009Z,0
2023-01-05T04:54:11.797Z,0
2023-01-05T04:55:14.915Z,0
2023-01-05T04:57:20.726Z,0
2023-01-05T04:58:23.507Z,0
2023-01-05T04:59:26.556Z,0
2023-01-05T05:00:30.003Z,0
2023-01-05T05:02:39.349Z,0
2023-01-05T05:04:46.467Z,0
2023-01-05T05:05:49.175Z,0
2023-01-05T05:07:56.080Z,0
2023-01-05T05:10:02.707Z,0
2023-01-05T05:12:08.446Z,0
2023-01-05T05:13:11.167Z,0
2023-01-05T05:15:17.909Z,0
2023-01-05T05:17:25.549Z,0
2023-01-05T05:19:33.020Z,0
2023-01-05T05:20:36.487Z,0
2023-01-05T05:22:43.238Z,0
2023-01-05T05:24:48.956Z,0
2023-01-05T05:26:55.779Z,0
2023-01-05T05:27:58.620Z,0
2023-01-05T05:30:05.186Z,0
2023-01-05T05:32:10.407Z,0
2023-01-05T05:34:18.107Z,0
2023-01-05T05:35:21.397Z,0
2023-01-05T05:37:28.060Z,0
2023-01-05T05:39:34.295Z,0
2023-01-05T05:41:39.578Z,0
2023-01-05T05:42:42.904Z,0
2023-01-05T05:44:48.775Z,0
2023-01-05T05:46:57.024Z,0
2023-01-05T05:49:03.142Z,0
2023-01-05T05:50:07.037Z,0
2023-01-05T05:51:09.208Z,0
2023-01-05T05:52:12.669Z,0
2023-01-05T05:54:19.201Z,0
2023-01-05T05:55:22.270Z,0
2023-01-05T05:56:25.573Z,0
2023-01-05T05:57:28.679Z,0
2023-01-05T05:59:34.674Z,0
2023-01-05T06:00:37.418Z,0
2023-01-05T06:01:41.490Z,0
2023-01-05T06:02:45.324Z,0
2023-01-05T06:04:53.135Z,0
2023-01-05T06:06:59.672Z,0
2023-01-05T06:08:02.823Z,0
2023-01-05T06:10:10.161Z,0
2023-01-05T06:12:18.744Z,0
2023-01-05T06:14:25.652Z,0
2023-01-05T06:15:28.966Z,0
2023-01-05T06:17:36.626Z,0
2023-01-05T06:19:43.072Z,0
2023-01-05T06:21:50.935Z,0
2023-01-05T06:22:54.326Z,0
2023-01-05T06:25:00.849Z,0
2023-01-05T06:27:07.545Z,0
2023-01-05T06:29:13.405Z,0
2023-01-05T06:30:16.672Z,0
2023-01-05T06:32:23.363Z,0
2023-01-05T06:34:29.992Z,0
2023-01-05T06:36:36.858Z,0
2023-01-05T06:37:40.359Z,0
2023-01-05T06:38:43.738Z,0
2023-01-05T06:39:46.795Z,0
2023-01-05T06:41:52.403Z,0
2023-01-05T06:42:56.034Z,0
2023-01-05T06:43:59.796Z,0
2023-01-05T06:45:02.885Z,0
2023-01-05T06:47:09.100Z,0
2023-01-05T06:48:12.183Z,0
2023-01-05T06:49:15.604Z,0
2023-01-05T06:50:19.010Z,0
2023-01-05T06:52:25.560Z,0
2023-01-05T06:54:32.138Z,0
2023-01-05T06:55:34.910Z,0
2023-01-05T06:57:41.424Z,0
2023-01-05T06:59:48.401Z,0
2023-01-05T07:01:55.987Z,0
2023-01-05T07:02:59.127Z,0
2023-01-05T07:05:06.336Z,0
2023-01-05T07:06:16.920Z,0
2023-01-05T07:07:20.330Z,0
2023-01-05T07:09:27.959Z,0
2023-01-05T07:10:31.403Z,0
2023-01-05T07:11:34.007Z,0
2023-01-05T07:12:37.435Z,0
2023-01-05T07:14:43.964Z,0
2023-01-05T07:15:47.152Z,0
2023-01-05T07:16:51.289Z,0
2023-01-05T07:17:54.410Z,0
2023-01-05T07:20:00.777Z,0
2023-01-05T07:22:07.649Z,1
2023-01-05T07:23:10.485Z,1
2023-01-05T07:25:17.735Z,1
2023-01-05T07:27:24.767Z,1
2023-01-05T07:29:30.680Z,1
2023-01-05T07:30:33.724Z,1
2023-01-05T07:32:40.350Z,1
2023-01-05T07:34:57.332Z,2
2023-01-05T07:37:03.627Z,2
2023-01-05T07:38:07.083Z,2
2023-01-05T07:39:10.464Z,2
2023-01-05T07:40:13.880Z,2
2023-01-05T07:42:20.168Z,2
2023-01-05T07:43:23.574Z,2
2023-01-05T07:44:26.931Z,2
2023-01-05T07:45:30.392Z,3
2023-01-05T07:47:37.203Z,2
2023-01-05T07:48:40.454Z,3
2023-01-05T07:49:44.165Z,3
2023-01-05T07:50:47.235Z,3
2023-01-05T07:52:54.423Z,3
2023-01-05T07:55:01.516Z,4
2023-01-05T07:56:04.995Z,5
2023-01-05T07:58:11.589Z,5
2023-01-05T08:00:18.090Z,4
2023-01-05T08:02:32.351Z,4
2023-01-05T08:03:39.749Z,4
2023-01-05T08:04:43.075Z,4
2023-01-05T08:05:46.363Z,5
2023-01-05T08:07:53.460Z,3
2023-01-05T08:08:56.003Z,3
2023-01-05T08:09:59.113Z,3
2023-01-05T08:11:02.106Z,3
2023-01-05T08:13:09.357Z,3
2023-01-05T08:15:15.868Z,4
2023-01-05T08:16:18.927Z,4
2023-01-05T08:18:25.547Z,8
2023-01-05T08:20:31.140Z,8
2023-01-05T08:21:34.309Z,11
2023-01-05T08:22:37.428Z,13
2023-01-05T08:23:40.151Z,13
2023-01-05T08:25:46.180Z,14
2023-01-05T08:26:49.857Z,16
2023-01-05T08:27:53.666Z,17
2023-01-05T08:28:57.422Z,17
2023-01-05T08:31:03.129Z,16
2023-01-05T08:33:11.089Z,21
2023-01-05T08:35:16.935Z,32
2023-01-05T08:36:20.385Z,45
2023-01-05T08:38:27.200Z,48
2023-01-05T08:40:33.139Z,38
2023-01-05T08:41:36.559Z,34
2023-01-05T08:42:40.215Z,36
2023-01-05T08:43:44.104Z,42
2023-01-05T08:45:51.335Z,59
2023-01-05T08:47:57.936Z,60
2023-01-05T08:49:01.053Z,56
2023-01-05T08:51:08.273Z,46
2023-01-05T08:53:14.441Z,53
2023-01-05T08:55:19.672Z,53
2023-01-05T08:56:22.789Z,52
2023-01-05T08:58:29.396Z,54
2023-01-05T09:00:36.939Z,44
2023-01-05T09:02:46.654Z,41
2023-01-05T09:03:49.783Z,50
2023-01-05T09:05:56.005Z,65
2023-01-05T09:08:03.166Z,67
2023-01-05T09:10:09.724Z,74
2023-01-05T09:11:12.793Z,87
2023-01-05T09:13:19.277Z,64
2023-01-05T09:15:26.175Z,75
2023-01-05T09:17:11.085Z,141
2023-01-05T09:18:14.657Z,75
2023-01-05T09:20:21.896Z,75
2023-01-05T09:21:25.597Z,353
2023-01-05T09:23:32.712Z,303
2023-01-05T09:25:39.465Z,79
2023-01-05T09:27:46.096Z,70
2023-01-05T09:28:49.571Z,53
2023-01-05T09:29:52.106Z,55
2023-01-05T09:30:55.725Z,51
2023-01-05T09:33:02.111Z,53
2023-01-05T09:34:04.848Z,52
2023-01-05T09:35:07.941Z,56
2023-01-05T09:36:11.243Z,59
2023-01-05T09:38:17.376Z,64
2023-01-05T09:39:20.702Z,72
2023-01-05T09:40:23.433Z,75
2023-01-05T09:41:26.793Z,296
2023-01-05T09:43:33.088Z,404
2023-01-05T09:44:36.900Z,463
2023-01-05T09:46:44.847Z,632
2023-01-05T09:48:52.400Z,601
2023-01-05T09:49:56.096Z,444
2023-01-05T09:52:03.401Z,604
2023-01-05T09:54:09.833Z,607
2023-01-05T09:55:13.204Z,631
2023-01-05T09:57:12.375Z,627
2023-01-05T09:59:19.528Z,638
2023-01-05T10:01:26.619Z,630
2023-01-05T10:02:31.284Z,637
2023-01-05T10:04:07.392Z,642
2023-01-05T10:05:11.978Z,647
2023-01-05T10:07:19.114Z,639
2023-01-05T10:09:25.408Z,665
2023-01-05T10:10:33.317Z,660
2023-01-05T10:11:36.427Z,648
2023-01-05T10:12:40.216Z,623
2023-01-05T10:14:46.522Z,535
2023-01-05T10:15:50.610Z,504
2023-01-05T10:17:45.737Z,477
2023-01-05T10:19:53.211Z,573
2023-01-05T10:20:56.699Z,622
2023-01-05T10:21:59.550Z,663
2023-01-05T10:23:03.008Z,694
2023-01-05T10:25:09.794Z,691
2023-01-05T10:26:12.503Z,673
2023-01-05T10:27:28.330Z,681
2023-01-05T10:28:32.012Z,626
2023-01-05T10:29:35.104Z,614
2023-01-05T10:31:42.845Z,666
2023-01-05T10:32:56.849Z,661
2023-01-05T10:34:41.841Z,236
2023-01-05T10:36:49.149Z,396
2023-01-05T10:38:16.826Z,686
2023-01-05T10:40:23.540Z,696
2023-01-05T10:41:26.916Z,705
2023-01-05T10:43:32.756Z,700
2023-01-05T10:44:36.779Z,702
2023-01-05T10:46:53.406Z,710
2023-01-05T10:47:58.359Z,709
2023-01-05T10:49:01.803Z,706
2023-01-05T10:51:09.426Z,701
2023-01-05T10:52:13.189Z,702
2023-01-05T10:54:19.684Z,691
2023-01-05T10:56:25.791Z,689
2023-01-05T10:57:38.598Z,683
2023-01-05T10:58:42.308Z,686
2023-01-05T10:59:45.785Z,678
2023-01-05T11:01:53.044Z,671
2023-01-05T11:02:56.724Z,687
2023-01-05T11:04:38.435Z,686
2023-01-05T11:05:43.015Z,708
2023-01-05T11:06:46.765Z,724
2023-01-05T11:07:49.879Z,681
2023-01-05T11:09:57.028Z,740
2023-01-05T11:11:00.416Z,661
2023-01-05T11:12:03.794Z,745
2023-01-05T11:13:06.883Z,732
2023-01-05T11:15:12.887Z,745
2023-01-05T11:16:16.444Z,729
2023-01-05T11:18:23.405Z,165
2023-01-05T11:20:30.026Z,388
2023-01-05T11:21:34.253Z,225
2023-01-05T11:22:37.174Z,270
2023-01-05T11:23:40.676Z,408
2023-01-05T11:25:46.771Z,157
2023-01-05T11:26:49.611Z,145
2023-01-05T11:28:07.053Z,137
2023-01-05T11:29:11.099Z,156
2023-01-05T11:31:18.597Z,765
2023-01-05T11:33:27.732Z,180
2023-01-05T11:34:31.364Z,227
2023-01-05T11:36:39.160Z,140
2023-01-05T11:38:45.112Z,162
2023-01-05T11:39:48.529Z,722
2023-01-05T11:40:51.557Z,178
2023-01-05T11:41:54.991Z,146
2023-01-05T11:44:01.014Z,210
2023-01-05T11:45:03.730Z,167
2023-01-05T11:47:10.302Z,728
2023-01-05T11:49:16.771Z,117
2023-01-05T11:50:20.156Z,194
2023-01-05T11:51:30.300Z,606
2023-01-05T11:52:34.497Z,119
2023-01-05T11:54:40.659Z,92
2023-01-05T11:55:44.090Z,76
2023-01-05T11:58:02.106Z,101
2023-01-05T12:00:09.712Z,77
2023-01-05T12:01:13.342Z,87
2023-01-05T12:03:21.625Z,81
2023-01-05T12:05:28.584Z,79
2023-01-05T12:06:32.679Z,100
2023-01-05T12:08:39.859Z,140
2023-01-05T12:10:46.457Z,111
2023-01-05T12:11:49.631Z,110
2023-01-05T12:13:57.096Z,78
2023-01-05T12:16:05.287Z,71
2023-01-05T12:17:08.666Z,58
2023-01-05T12:19:15.825Z,172
2023-01-05T12:20:19.315Z,59
2023-01-05T12:22:25.471Z,71
2023-01-05T12:23:29.870Z,82
2023-01-05T12:25:37.005Z,81
2023-01-05T12:27:43.263Z,87
2023-01-05T12:31:34.656Z,60
2023-01-05T12:34:16.515Z,42
2023-01-05T12:35:20.087Z,42
2023-01-05T12:36:22.802Z,47
2023-01-05T12:37:26.113Z,56
2023-01-05T12:39:33.966Z,44
2023-01-05T12:40:37.828Z,43
2023-01-05T12:42:44.671Z,49
2023-01-05T12:43:48.333Z,57
2023-01-05T12:45:54.799Z,54
2023-01-05T12:46:58.699Z,69
2023-01-05T12:49:05.324Z,72
2023-01-05T12:51:11.765Z,62
2023-01-05T12:52:15.433Z,59
2023-01-05T12:54:22.001Z,53
2023-01-05T12:56:29.213Z,77
2023-01-05T12:57:32.187Z,61
2023-01-05T12:59:38.911Z,76
2023-01-05T13:01:47.220Z,81
2023-01-05T13:03:53.824Z,66
2023-01-05T13:04:58.754Z,67
2023-01-05T13:07:05.548Z,91
2023-01-05T13:08:08.480Z,88
2023-01-05T13:10:15.012Z,73
2023-01-05T13:11:19.094Z,70
2023-01-05T13:13:26.800Z,67
2023-01-05T13:15:41.643Z,76
2023-01-05T13:16:45.599Z,77
2023-01-05T13:18:51.796Z,67
2023-01-05T13:20:58.394Z,64
2023-01-05T13:22:01.752Z,61
2023-01-05T13:24:08.182Z,44
2023-01-05T13:26:15.754Z,55
2023-01-05T13:27:18.720Z,43
2023-01-05T13:29:25.165Z,49
2023-01-05T13:31:32.636Z,43
2023-01-05T13:32:36.948Z,51
2023-01-05T13:34:44.319Z,32
2023-01-05T13:36:50.950Z,35
2023-01-05T13:37:54.697Z,34
2023-01-05T13:40:01.314Z,37
2023-01-05T13:41:04.680Z,31
2023-01-05T13:43:12.357Z,32
2023-01-05T13:45:19.517Z,26
2023-01-05T13:46:23.176Z,25
2023-01-05T13:47:33.645Z,21
2023-01-05T13:49:06.231Z,24
2023-01-05T13:50:09.545Z,17
2023-01-05T13:51:12.885Z,17
2023-01-05T13:53:19.104Z,16
2023-01-05T13:54:22.622Z,18
2023-01-05T13:56:32.315Z,13
2023-01-05T13:57:36.092Z,15
2023-01-05T13:58:39.690Z,15
2023-01-05T14:00:12.903Z,12
2023-01-05T14:01:17.089Z,13
2023-01-05T14:02:20.919Z,16
2023-01-05T14:04:26.695Z,13
2023-01-05T14:05:30.425Z,12
2023-01-05T14:07:36.199Z,13
2023-01-05T14:09:43.560Z,13
2023-01-05T14:11:50.310Z,11
2023-01-05T14:12:53.936Z,12
2023-01-05T14:13:57.597Z,13
2023-01-05T14:15:03.361Z,13
2023-01-05T14:16:06.770Z,13
2023-01-05T14:18:13.492Z,10
2023-01-05T14:19:16.880Z,11
2023-01-05T14:20:19.938Z,13
2023-01-05T14:21:22.941Z,12
2023-01-05T14:23:29.790Z,12
2023-01-05T14:24:32.490Z,11
2023-01-05T14:26:39.749Z,10
2023-01-05T14:28:47.233Z,11
2023-01-05T14:30:56.119Z,8
2023-01-05T14:31:59.452Z,8
2023-01-05T14:34:07.168Z,9
2023-01-05T14:36:13.479Z,11
2023-01-05T14:37:16.760Z,11
2023-01-05T14:39:23.291Z,9
2023-01-05T14:41:28.672Z,7
2023-01-05T14:42:31.701Z,7
2023-01-05T14:43:35.074Z,7
2023-01-05T14:44:38.511Z,7
2023-01-05T14:46:46.414Z,6
2023-01-05T14:47:49.580Z,6
2023-01-05T14:49:56.380Z,5
2023-01-05T14:52:02.074Z,4
2023-01-05T14:53:06.123Z,4
2023-01-05T14:54:09.259Z,4
2023-01-05T14:55:41.175Z,5
2023-01-05T14:57:47.647Z,6
2023-01-05T14:59:55.090Z,5
2023-01-05T15:01:03.641Z,4
2023-01-05T15:02:07.572Z,4
2023-01-05T15:03:11.583Z,4
2023-01-05T15:05:17.860Z,4
2023-01-05T15:06:21.585Z,4
2023-01-05T15:08:28.351Z,3
2023-01-05T15:09:31.455Z,3
2023-01-05T15:10:34.799Z,3
2023-01-05T15:11:38.062Z,3
2023-01-05T15:12:40.840Z,2
2023-01-05T15:13:44.309Z,2
2023-01-05T15:14:47.581Z,2
2023-01-05T15:15:51.492Z,2
2023-01-05T15:16:55.452Z,1
2023-01-05T15:17:59.261Z,1
2023-01-05T15:19:02.419Z,1
2023-01-05T15:20:11.625Z,1
2023-01-05T15:21:14.970Z,1
2023-01-05T15:22:40.766Z,1
2023-01-05T15:23:44.693Z,0
2023-01-05T15:24:47.992Z,0
2023-01-05T15:26:09.897Z,0
2023-01-05T15:27:13.839Z,0
2023-01-05T15:29:20.445Z,0
2023-01-05T15:32:32.976Z,0
2023-01-05T15:34:39.927Z,0
2023-01-05T15:35:42.924Z,0
2023-01-05T15:36:45.380Z,0
2023-01-05T15:37:48.871Z,0
2023-01-05T15:39:56.138Z,0
2023-01-05T15:40:59.819Z,0
2023-01-05T15:43:06.106Z,0
2023-01-05T15:45:12.873Z,0
2023-01-05T15:47:19.791Z,0
2023-01-05T15:48:24.254Z,0
2023-01-05T15:50:31.480Z,0
2023-01-05T15:52:38.445Z,0
2023-01-05T15:54:44.055Z,0
2023-01-05T15:55:47.697Z,0
2023-01-05T15:57:54.095Z,0
2023-01-05T15:59:59.713Z,0
2023-01-05T16:01:03.056Z,0
2023-01-05T16:03:09.282Z,0
2023-01-05T16:05:16.942Z,0
2023-01-05T16:07:24.047Z,0
2023-01-05T16:08:27.312Z,0
2023-01-05T16:10:34.797Z,0
2023-01-05T16:12:41.073Z,0
2023-01-05T16:13:44.177Z,0
2023-01-05T16:15:50.661Z,0
2023-01-05T16:18:00.296Z,0
2023-01-05T16:19:04.128Z,0
2023-01-05T16:21:10.921Z,0
2023-01-05T16:22:13.457Z,0
2023-01-05T16:23:16.837Z,0
2023-01-05T16:24:20.494Z,0
2023-01-05T16:26:25.922Z,0
2023-01-05T16:27:29.296Z,0
2023-01-05T16:29:36.065Z,0
2023-01-05T16:31:41.877Z,0
2023-01-05T16:32:45.225Z,0
2023-01-05T16:34:52.015Z,0
2023-01-05T16:37:00.515Z,0
2023-01-05T16:38:03.216Z,0
2023-01-05T16:39:05.744Z,0
2023-01-05T16:40:10.841Z,0
2023-01-05T16:41:14.706Z,0
2023-01-05T16:43:20.734Z,0
2023-01-05T16:45:27.781Z,0
2023-01-05T16:46:31.197Z,0
2023-01-05T16:47:34.289Z,0
2023-01-05T16:48:37.030Z,0
2023-01-05T16:50:00.496Z,0
2023-01-05T16:51:04.436Z,0
2023-01-05T16:52:10.729Z,0
2023-01-05T16:54:24.919Z,0
2023-01-05T16:56:34.388Z,0
2023-01-05T16:57:37.800Z,0
2023-01-05T16:59:44.357Z,0
2023-01-05T17:01:50.457Z,0
2023-01-05T17:02:53.855Z,0
2023-01-05T17:05:00.791Z,0
2023-01-05T17:07:08.923Z,0
2023-01-05T17:08:13.263Z,0
2023-01-05T17:10:19.024Z,0
2023-01-05T17:12:25.949Z,0
2023-01-05T17:14:32.362Z,0
2023-01-05T17:15:35.826Z,0
2023-01-05T17:17:43.565Z,0
2023-01-05T17:19:49.969Z,0
2023-01-05T17:20:52.999Z,0
2023-01-05T17:21:57.113Z,0
2023-01-05T17:23:00.953Z,0
2023-01-05T17:25:13.316Z,0
2023-01-05T17:26:16.680Z,0
2023-01-05T17:28:22.573Z,0
2023-01-05T17:30:28.569Z,0
2023-01-05T17:32:34.904Z,0
2023-01-05T17:33:37.983Z,0
2023-01-05T17:35:45.600Z,0
2023-01-05T17:37:52.932Z,0
2023-01-05T17:40:00.338Z,0
2023-01-05T17:41:03.450Z,0
2023-01-05T17:43:09.047Z,0
2023-01-05T17:45:15.556Z,0
2023-01-05T17:46:18.858Z,0
2023-01-05T17:47:21.896Z,0
2023-01-05T17:48:25.211Z,0
2023-01-05T17:50:34.057Z,0
2023-01-05T17:51:37.961Z,0
2023-01-05T17:53:46.271Z,0
2023-01-05T17:55:54.791Z,0
2023-01-05T17:58:02.055Z,0
2023-01-05T17:59:05.129Z,0
2023-01-05T18:00:07.889Z,0
2023-01-05T18:01:10.961Z,0
2023-01-05T18:03:18.245Z,0
2023-01-05T18:04:21.512Z,0
2023-01-05T18:05:24.828Z,0
2023-01-05T18:06:27.577Z,0
2023-01-05T18:08:34.583Z,0
2023-01-05T18:10:43.589Z,0
2023-01-05T18:11:48.085Z,0
2023-01-05T18:13:55.764Z,0
2023-01-05T18:16:02.148Z,0
2023-01-05T18:18:08.413Z,0
2023-01-05T18:19:11.625Z,0
2023-01-05T18:21:23.565Z,0
2023-01-05T18:23:28.788Z,0
2023-01-05T18:25:34.947Z,0
2023-01-05T18:26:38.807Z,0
2023-01-05T18:27:42.543Z,0
2023-01-05T18:28:45.545Z,0
2023-01-05T18:30:51.900Z,0
2023-01-05T18:31:54.715Z,0
2023-01-05T18:32:58.518Z,0
2023-01-05T18:34:00.772Z,0
2023-01-05T18:35:12.159Z,0
2023-01-05T18:36:16.035Z,0
2023-01-05T18:38:27.124Z,0
2023-01-05T18:39:30.222Z,0
2023-01-05T18:41:36.610Z,0
2023-01-05T18:43:44.652Z,0
2023-01-05T18:45:51.245Z,0
2023-01-05T18:46:54.357Z,0
2023-01-05T18:49:00.352Z,0
2023-01-05T18:51:06.299Z,0
2023-01-05T18:53:12.103Z,0
2023-01-05T18:54:15.293Z,0
2023-01-05T18:56:21.783Z,0
2023-01-05T18:58:29.381Z,0
2023-01-05T19:00:36.005Z,0
2023-01-05T19:01:40.028Z,0
2023-01-05T19:03:46.356Z,0
2023-01-05T19:05:52.122Z,0
2023-01-05T19:07:58.448Z,0
2023-01-05T19:09:01.460Z,0
2023-01-05T19:11:06.778Z,0
2023-01-05T19:13:14.000Z,0
2023-01-05T19:15:21.101Z,0
2023-01-05T19:16:24.735Z,0
2023-01-05T19:18:30.307Z,0
2023-01-05T19:20:36.428Z,0
2023-01-05T19:21:39.446Z,0
2023-01-05T19:22:41.619Z,0
2023-01-05T19:23:45.641Z,0
2023-01-05T19:25:52.846Z,0
2023-01-05T19:28:02.263Z,0
2023-01-05T19:29:05.759Z,0
2023-01-05T19:31:14.313Z,0
2023-01-05T19:33:20.910Z,0
2023-01-05T19:35:26.890Z,0
2023-01-05T19:36:29.984Z,0
2023-01-05T19:38:35.648Z,0
2023-01-05T19:40:42.391Z,0
2023-01-05T19:42:52.327Z,0
2023-01-05T19:43:55.665Z,0
2023-01-05T19:46:03.245Z,0
2023-01-05T19:48:09.739Z,0
2023-01-05T19:49:12.716Z,0
2023-01-05T19:50:15.777Z,0
2023-01-05T19:51:19.758Z,0
2023-01-05T19:53:25.329Z,0
2023-01-05T19:54:28.659Z,0
2023-01-05T19:55:32.035Z,0
2023-01-05T19:56:35.371Z,0
2023-01-05T19:58:41.357Z,0
2023-01-05T20:00:47.332Z,0
2023-01-05T20:01:51.692Z,0
2023-01-05T20:03:57.970Z,0
2023-01-05T20:06:04.319Z,0
2023-01-05T20:08:10.718Z,0
2023-01-05T20:09:13.455Z,0
2023-01-05T20:11:19.754Z,0
2023-01-05T20:13:24.620Z,0
2023-01-05T20:14:27.970Z,0
2023-01-05T20:16:34.451Z,0
2023-01-05T20:18:41.760Z,0
2023-01-05T20:20:47.905Z,0
2023-01-05T20:21:51.088Z,0
2023-01-05T20:23:57.823Z,0
2023-01-05T20:26:04.612Z,0
2023-01-05T20:28:10.731Z,0
2023-01-05T20:29:14.138Z,0
2023-01-05T20:31:20.264Z,0
2023-01-05T20:33:27.250Z,0
2023-01-05T20:34:30.958Z,0
2023-01-05T20:35:32.560Z,0
2023-01-05T20:36:35.903Z,0
2023-01-05T20:38:42.065Z,0
2023-01-05T20:39:45.107Z,0
2023-01-05T20:40:48.553Z,0
2023-01-05T20:41:51.883Z,0
2023-01-05T20:43:58.252Z,0
2023-01-05T20:45:01.928Z,0
2023-01-05T20:46:04.947Z,0
2023-01-05T20:47:08.352Z,0
2023-01-05T20:49:16.153Z,0
2023-01-05T20:51:23.225Z,0
2023-01-05T20:52:26.610Z,0
2023-01-05T20:54:32.436Z,0
2023-01-05T20:56:39.932Z,0
2023-01-05T20:58:45.467Z,0
2023-01-05T20:59:48.604Z,0
2023-01-05T21:01:13.541Z,0
2023-01-05T21:02:26.859Z,0
2023-01-05T21:03:31.159Z,0
2023-01-05T21:04:34.463Z,0
2023-01-05T21:06:41.663Z,0
2023-01-05T21:07:45.312Z,0
2023-01-05T21:08:49.039Z,0
2023-01-05T21:09:52.356Z,0
2023-01-05T21:11:59.446Z,0
2023-01-05T21:13:35.079Z,0
2023-01-05T21:14:37.789Z,0
2023-01-05T21:15:40.502Z,0
2023-01-05T21:17:46.985Z,0
2023-01-05T21:19:54.338Z,0
2023-01-05T21:22:01.705Z,0
2023-01-05T21:23:05.041Z,0
2023-01-05T21:25:11.890Z,0
2023-01-05T21:27:20.811Z,0
2023-01-05T21:28:24.148Z,0
2023-01-05T21:30:31.103Z,0
2023-01-05T21:32:37.245Z,0
2023-01-05T21:34:44.049Z,0
2023-01-05T21:35:48.164Z,0
2023-01-05T21:37:54.402Z,0
2023-01-05T21:39:05.443Z,0
2023-01-05T21:40:09.180Z,0
2023-01-05T21:41:12.644Z,0
2023-01-05T21:42:15.679Z,0
2023-01-05T21:43:18.949Z,0
2023-01-05T21:45:24.923Z,0
2023-01-05T21:46:28.259Z,0
2023-01-05T21:47:31.683Z,0
2023-01-05T21:48:35.026Z,0
2023-01-05T21:50:41.576Z,0
2023-01-05T21:51:45.212Z,0
2023-01-05T21:52:49.543Z,0
2023-01-05T21:53:52.022Z,0
2023-01-05T21:55:58.437Z,0
2023-01-05T21:58:04.935Z,0
2023-01-05T21:59:08.001Z,0
2023-01-05T22:01:15.884Z,0
2023-01-05T22:03:22.527Z,0
2023-01-05T22:05:29.421Z,0
2023-01-05T22:06:33.149Z,0
2023-01-05T22:08:40.978Z,0
2023-01-05T22:10:46.944Z,0
2023-01-05T22:12:55.960Z,0
2023-01-05T22:13:58.392Z,0
2023-01-05T22:16:05.478Z,0
2023-01-05T22:18:12.612Z,0
2023-01-05T22:20:18.863Z,0
2023-01-05T22:21:21.864Z,0
2023-01-05T22:23:30.392Z,0
2023-01-05T22:25:38.822Z,0
2023-01-05T22:27:44.962Z,0
2023-01-05T22:28:48.662Z,0
2023-01-05T22:29:51.458Z,0
2023-01-05T22:30:53.914Z,0
2023-01-05T22:33:00.141Z,0
2023-01-05T22:34:03.426Z,0
2023-01-05T22:35:06.701Z,0
2023-01-05T22:36:09.425Z,0
2023-01-05T22:38:15.296Z,0
2023-01-05T22:39:18.887Z,0
2023-01-05T22:40:23.463Z,0
2023-01-05T22:41:25.965Z,0
2023-01-05T22:43:31.281Z,0
2023-01-05T22:45:37.672Z,0
2023-01-05T22:46:41.344Z,0
2023-01-05T22:48:47.543Z,0
2023-01-05T22:50:54.916Z,0
2023-01-05T22:53:00.987Z,0
2023-01-05T22:54:04.362Z,0
2023-01-05T22:56:11.988Z,0
2023-01-05T22:58:17.810Z,0
2023-01-05T23:00:23.898Z,0
2023-01-05T23:01:27.585Z,0
2023-01-05T23:03:33.513Z,0
2023-01-05T23:05:39.099Z,0
2023-01-05T23:07:44.875Z,0
2023-01-05T23:08:47.632Z,0
2023-01-05T23:10:54.784Z,0
2023-01-05T23:13:02.062Z,0
2023-01-05T23:15:07.747Z,0
2023-01-05T23:16:11.791Z,0
2023-01-05T23:18:18.281Z,0
2023-01-05T23:20:24.687Z,0
2023-01-05T23:22:31.272Z,0
2023-01-05T23:23:34.004Z,0
2023-01-05T23:25:40.706Z,0
2023-01-05T23:27:48.018Z,0
2023-01-05T23:29:54.673Z,0
2023-01-05T23:30:58.193Z,0
2023-01-05T23:33:03.471Z,0
2023-01-05T23:35:09.652Z,0
2023-01-05T23:37:15.989Z,0